createdAt,value
2023-12-13T00:00:16.879Z,94944.44
2023-12-13T00:01:43.574Z,94938.30
2023-12-13T00:02:49.954Z,94938.25
2023-12-13T00:03:56.675Z,94935.30
2023-12-13T00:05:03.867Z,94937.25
2023-12-13T00:06:10.239Z,94935.73
2023-12-13T00:07:16.677Z,94930.28
2023-12-13T00:08:23.149Z,94928.83
2023-12-13T00:09:29.618Z,94925.83
2023-12-13T00:10:36.235Z,94925.73
2023-12-13T00:11:42.549Z,94929.20
2023-12-13T00:12:49.115Z,94927.36
2023-12-13T00:13:55.787Z,94928.91
2023-12-13T00:15:02.108Z,94923.92
2023-12-13T00:16:10.231Z,94925.70
2023-12-13T00:17:16.568Z,94928.55
2023-12-13T00:18:23.295Z,94939.22
2023-12-13T00:19:29.523Z,94937.93
2023-12-13T00:20:38.743Z,94939.65
2023-12-13T00:21:45.420Z,94945.96
2023-12-13T00:22:52.268Z,94955.62
2023-12-13T00:23:58.696Z,94954.49
2023-12-13T00:25:05.849Z,94953.35
2023-12-13T00:26:17.281Z,94954.26
2023-12-13T00:27:24.069Z,94958.48
2023-12-13T00:28:30.981Z,94960.95
2023-12-13T00:29:38.154Z,94960.88
2023-12-13T00:30:46.472Z,94957.55
2023-12-13T00:31:53.064Z,94953.79
2023-12-13T00:32:59.397Z,94953.16
2023-12-13T00:34:06.686Z,94949.04
2023-12-13T00:35:13.336Z,94947.48
2023-12-13T00:36:19.601Z,94955.52
2023-12-13T00:37:25.993Z,94952.50
2023-12-13T00:38:32.284Z,94954.05
2023-12-13T00:39:38.756Z,94956.67
2023-12-13T00:40:46.569Z,94955.05
2023-12-13T00:41:53.255Z,94948.94
2023-12-13T00:42:59.606Z,94947.48
2023-12-13T00:44:06.146Z,94948.16
2023-12-13T00:45:13.412Z,94955.29
2023-12-13T00:46:24.034Z,94955.02
2023-12-13T00:47:30.823Z,94952.61
2023-12-13T00:48:37.618Z,94947.50
2023-12-13T00:49:44.069Z,94943.48
2023-12-13T00:50:50.752Z,94944.07
2023-12-13T00:51:57.242Z,94940.69
2023-12-13T00:53:03.796Z,94941.11
2023-12-13T00:54:09.972Z,94938.42
2023-12-13T00:55:16.344Z,94936.84
2023-12-13T00:56:22.600Z,94933.52
2023-12-13T00:57:28.901Z,94934.26
2023-12-13T00:58:35.192Z,94933.27
2023-12-13T00:59:41.426Z,94931.98
2023-12-13T01:00:47.948Z,94931.87
2023-12-13T01:01:54.531Z,94933.09
2023-12-13T01:03:01.097Z,94929.55
2023-12-13T01:04:07.997Z,94922.42
2023-12-13T01:05:14.539Z,94919.27
2023-12-13T01:06:20.888Z,94910.87
2023-12-13T01:07:27.275Z,94908.73
2023-12-13T01:08:33.628Z,94904.29
2023-12-13T01:09:42.513Z,94898.94
2023-12-13T01:10:49.029Z,94890.23
2023-12-13T01:11:55.378Z,94880.85
2023-12-13T01:13:02.398Z,94878.48
2023-12-13T01:14:08.982Z,94874.40
2023-12-13T01:15:15.989Z,94876.63
2023-12-13T01:16:22.256Z,94866.71
2023-12-13T01:17:28.478Z,94869.17
2023-12-13T01:18:34.899Z,94863.27
2023-12-13T01:19:41.332Z,94871.64
2023-12-13T01:20:48.040Z,94871.67
2023-12-13T01:21:54.851Z,94873.94
2023-12-13T01:23:01.365Z,94874.00
2023-12-13T01:24:08.196Z,94874.17
2023-12-13T01:25:14.867Z,94873.83
2023-12-13T01:26:21.091Z,94871.48
2023-12-13T01:27:27.396Z,94872.09
2023-12-13T01:28:34.061Z,94873.17
2023-12-13T01:29:40.356Z,94874.26
2023-12-13T01:30:46.797Z,94873.72
2023-12-13T01:31:53.448Z,94877.05
2023-12-13T01:33:04.060Z,94879.98
2023-12-13T01:34:11.108Z,94884.94
2023-12-13T01:35:17.533Z,94892.17
2023-12-13T01:36:24.253Z,94891.80
2023-12-13T01:37:31.433Z,94890.36
2023-12-13T01:38:38.139Z,94891.75
2023-12-13T01:39:45.308Z,94888.11
2023-12-13T01:41:11.165Z,94888.90
2023-12-13T01:42:20.346Z,94894.64
2023-12-13T01:43:27.442Z,94897.59
2023-12-13T01:44:33.787Z,94899.95
2023-12-13T01:45:40.142Z,94896.95
2023-12-13T01:46:48.031Z,94896.73
2023-12-13T01:47:54.953Z,94898.34
2023-12-13T01:49:02.889Z,94902.23
2023-12-13T01:50:11.223Z,94898.65
2023-12-13T01:51:18.574Z,94893.30
2023-12-13T01:52:25.115Z,94892.52
2023-12-13T01:53:33.211Z,94894.35
2023-12-13T01:54:40.681Z,94893.59
2023-12-13T01:55:47.906Z,94892.27
2023-12-13T01:56:54.617Z,94891.79
2023-12-13T01:58:01.484Z,94890.17
2023-12-13T01:59:07.932Z,94889.94
2023-12-13T02:00:16.974Z,94891.06
2023-12-13T02:01:23.429Z,94890.90
2023-12-13T02:02:30.434Z,94884.55
2023-12-13T02:03:38.365Z,94883.42
2023-12-13T02:04:46.089Z,94879.77
2023-12-13T02:05:53.380Z,94879.38
2023-12-13T02:07:00.014Z,94878.07
2023-12-13T02:08:07.566Z,94875.17
2023-12-13T02:09:14.316Z,94877.77
2023-12-13T02:10:21.888Z,94873.98
2023-12-13T02:11:29.107Z,94869.48
2023-12-13T02:12:36.176Z,94866.64
2023-12-13T02:13:43.386Z,94868.44
2023-12-13T02:14:49.756Z,94871.95
2023-12-13T02:15:56.519Z,94877.21
2023-12-13T02:17:03.450Z,94878.77
2023-12-13T02:18:17.194Z,94876.81
2023-12-13T02:19:23.542Z,94874.47
2023-12-13T02:20:30.504Z,94870.52
2023-12-13T02:21:36.741Z,94870.60
2023-12-13T02:22:43.254Z,94870.34
2023-12-13T02:23:52.693Z,94869.02
2023-12-13T02:24:59.949Z,94866.40
2023-12-13T02:26:07.555Z,94864.75
2023-12-13T02:27:14.601Z,94857.63
2023-12-13T02:28:22.151Z,94851.30
2023-12-13T02:29:28.707Z,94849.27
2023-12-13T02:30:35.243Z,94853.72
2023-12-13T02:31:45.183Z,94854.47
2023-12-13T02:32:51.659Z,94845.37
2023-12-13T02:33:58.362Z,94842.52
2023-12-13T02:35:05.062Z,94838.09
2023-12-13T02:36:12.094Z,94828.70
2023-12-13T02:37:18.392Z,94826.92
2023-12-13T02:38:25.899Z,94820.58
2023-12-13T02:39:32.668Z,94811.20
2023-12-13T02:40:39.149Z,94802.69
2023-12-13T02:41:45.831Z,94805.05
2023-12-13T02:42:52.054Z,94806.50
2023-12-13T02:43:58.288Z,94809.99
2023-12-13T02:45:05.168Z,94810.39
2023-12-13T02:46:11.525Z,94810.39
2023-12-13T02:47:17.736Z,94809.41
2023-12-13T02:48:28.908Z,94802.83
2023-12-13T02:49:35.719Z,94797.30
2023-12-13T02:50:42.286Z,94790.55
2023-12-13T02:51:48.638Z,94787.17
2023-12-13T02:52:55.319Z,94785.13
2023-12-13T02:54:01.892Z,94784.44
2023-12-13T02:55:13.099Z,94784.64
2023-12-13T02:56:19.733Z,94780.38
2023-12-13T02:57:26.108Z,94776.89
2023-12-13T02:58:32.719Z,94779.14
2023-12-13T02:59:38.820Z,94785.75
2023-12-13T03:00:45.411Z,94787.69
2023-12-13T03:01:51.862Z,94790.37
2023-12-13T03:02:59.060Z,94788.66
2023-12-13T03:04:05.840Z,94785.17
2023-12-13T03:05:12.608Z,94782.33
2023-12-13T03:06:19.596Z,94781.16
2023-12-13T03:07:26.639Z,94785.82
2023-12-13T03:08:33.418Z,94784.48
2023-12-13T03:09:41.156Z,94778.27
2023-12-13T03:10:47.769Z,94774.41
2023-12-13T03:11:54.659Z,94773.10
2023-12-13T03:13:02.368Z,94769.57
2023-12-13T03:14:09.217Z,94768.02
2023-12-13T03:15:16.361Z,94762.98
2023-12-13T03:16:24.814Z,94764.65
2023-12-13T03:17:31.694Z,94769.15
2023-12-13T03:18:39.459Z,94768.72
2023-12-13T03:19:46.482Z,94769.90
2023-12-13T03:20:56.074Z,94770.71
2023-12-13T03:22:04.376Z,94772.48
2023-12-13T03:23:11.620Z,94772.86
2023-12-13T03:24:18.045Z,94772.42
2023-12-13T03:25:24.622Z,94769.41
2023-12-13T03:26:31.398Z,94765.83
2023-12-13T03:27:38.672Z,94762.48
2023-12-13T03:28:45.534Z,94761.85
2023-12-13T03:29:52.218Z,94763.35
2023-12-13T03:30:59.113Z,94764.37
2023-12-13T03:32:07.110Z,94763.83
2023-12-13T03:33:13.965Z,94763.73
2023-12-13T03:34:20.587Z,94763.83
2023-12-13T03:35:27.553Z,94764.44
2023-12-13T03:36:34.084Z,94761.76
2023-12-13T03:37:41.502Z,94759.12
2023-12-13T03:38:48.234Z,94760.41
2023-12-13T03:39:54.740Z,94755.35
2023-12-13T03:41:01.686Z,94751.98
2023-12-13T03:42:08.234Z,94747.46
2023-12-13T03:43:14.573Z,94742.14
2023-12-13T03:44:21.143Z,94737.92
2023-12-13T03:45:28.223Z,94735.77
2023-12-13T03:46:36.110Z,94731.36
2023-12-13T03:47:44.250Z,94719.77
2023-12-13T03:48:51.145Z,94716.48
2023-12-13T03:49:57.959Z,94715.95
2023-12-13T03:51:06.023Z,94711.77
2023-12-13T03:52:12.632Z,94707.25
2023-12-13T03:53:18.783Z,94703.17
2023-12-13T03:54:25.413Z,94702.75
2023-12-13T03:55:31.678Z,94702.16
2023-12-13T03:56:38.313Z,94697.27
2023-12-13T03:57:44.829Z,94695.45
2023-12-13T03:58:51.261Z,94692.98
2023-12-13T03:59:57.860Z,94695.55
2023-12-13T04:01:04.502Z,94692.87
2023-12-13T04:02:10.796Z,94684.48
2023-12-13T04:03:17.298Z,94683.10
2023-12-13T04:04:23.842Z,94688.40
2023-12-13T04:05:30.783Z,94688.89
2023-12-13T04:06:37.209Z,94685.68
2023-12-13T04:07:43.897Z,94687.45
2023-12-13T04:08:50.534Z,94684.88
2023-12-13T04:09:57.023Z,94684.49
2023-12-13T04:11:03.669Z,94678.87
2023-12-13T04:12:11.126Z,94675.90
2023-12-13T04:13:17.765Z,94672.26
2023-12-13T04:14:24.288Z,94670.16
2023-12-13T04:15:30.832Z,94673.17
2023-12-13T04:16:36.935Z,94672.54
2023-12-13T04:17:43.714Z,94670.49
2023-12-13T04:18:52.947Z,94667.44
2023-12-13T04:19:59.866Z,94668.77
2023-12-13T04:21:07.299Z,94662.13
2023-12-13T04:22:13.909Z,94663.79
2023-12-13T04:23:20.646Z,94668.46
2023-12-13T04:24:26.982Z,94672.75
2023-12-13T04:25:33.196Z,94675.32
2023-12-13T04:26:39.839Z,94665.61
2023-12-13T04:27:48.723Z,94664.48
2023-12-13T04:28:55.422Z,94663.84
2023-12-13T04:30:02.082Z,94664.75
2023-12-13T04:31:09.160Z,94666.91
2023-12-13T04:32:15.598Z,94665.88
2023-12-13T04:33:22.092Z,94659.88
2023-12-13T04:34:28.801Z,94657.29
2023-12-13T04:35:35.275Z,94654.94
2023-12-13T04:36:41.921Z,94652.14
2023-12-13T04:37:48.670Z,94647.05
2023-12-13T04:38:55.604Z,94645.27
2023-12-13T04:40:02.480Z,94643.23
2023-12-13T04:41:09.536Z,94648.77
2023-12-13T04:42:16.002Z,94651.71
2023-12-13T04:43:23.095Z,94649.31
2023-12-13T04:44:29.827Z,94647.95
2023-12-13T04:45:36.462Z,94639.21
2023-12-13T04:46:44.437Z,94638.15
2023-12-13T04:47:50.957Z,94633.85
2023-12-13T04:49:02.393Z,94634.76
2023-12-13T04:50:10.809Z,94638.93
2023-12-13T04:51:17.318Z,94635.55
2023-12-13T04:52:24.253Z,94639.95
2023-12-13T04:53:31.212Z,94645.38
2023-12-13T04:54:38.559Z,94652.83
2023-12-13T04:55:44.833Z,94658.46
2023-12-13T04:56:51.318Z,94653.58
2023-12-13T04:57:57.837Z,94659.21
2023-12-13T04:59:04.292Z,94660.29
2023-12-13T05:00:12.678Z,94652.40
2023-12-13T05:01:18.949Z,94646.54
2023-12-13T05:02:25.394Z,94643.21
2023-12-13T05:03:31.982Z,94641.92
2023-12-13T05:04:38.748Z,94642.30
2023-12-13T05:05:45.437Z,94646.77
2023-12-13T05:06:51.902Z,94645.75
2023-12-13T05:07:58.540Z,94648.32
2023-12-13T05:09:05.063Z,94648.27
2023-12-13T05:10:12.400Z,94650.14
2023-12-13T05:11:20.289Z,94650.25
2023-12-13T05:12:26.573Z,94647.40
2023-12-13T05:13:33.185Z,94647.08
2023-12-13T05:14:39.844Z,94646.33
2023-12-13T05:15:46.169Z,94641.50
2023-12-13T05:16:52.702Z,94638.07
2023-12-13T05:17:59.228Z,94634.46
2023-12-13T05:19:06.041Z,94634.99
2023-12-13T05:20:13.326Z,94635.16
2023-12-13T05:21:19.774Z,94633.50
2023-12-13T05:22:26.902Z,94635.64
2023-12-13T05:23:33.341Z,94644.13
2023-12-13T05:24:40.005Z,94645.80
2023-12-13T05:25:46.756Z,94649.06
2023-12-13T05:26:53.337Z,94643.75
2023-12-13T05:27:59.785Z,94640.11
2023-12-13T05:29:06.814Z,94639.45
2023-12-13T05:30:14.650Z,94638.05
2023-12-13T05:31:25.306Z,94639.61
2023-12-13T05:32:31.775Z,94631.56
2023-12-13T05:33:39.689Z,94628.87
2023-12-13T05:34:46.155Z,94625.76
2023-12-13T05:35:52.979Z,94615.92
2023-12-13T05:36:59.252Z,94612.59
2023-12-13T05:38:06.012Z,94607.77
2023-12-13T05:39:12.856Z,94606.64
2023-12-13T05:40:19.236Z,94613.29
2023-12-13T05:41:25.777Z,94613.30
2023-12-13T05:42:34.818Z,94605.99
2023-12-13T05:43:41.749Z,94609.42
2023-12-13T05:44:48.305Z,94609.48
2023-12-13T05:45:56.013Z,94611.63
2023-12-13T05:47:02.744Z,94608.94
2023-12-13T05:48:09.724Z,94607.86
2023-12-13T05:49:19.346Z,94610.86
2023-12-13T05:50:26.316Z,94606.90
2023-12-13T05:51:33.455Z,94605.02
2023-12-13T05:52:40.721Z,94605.45
2023-12-13T05:53:47.373Z,94608.41
2023-12-13T05:54:53.838Z,94602.61
2023-12-13T05:56:02.197Z,94602.18
2023-12-13T05:57:08.653Z,94599.70
2023-12-13T05:58:16.077Z,94600.17
2023-12-13T05:59:22.769Z,94600.83
2023-12-13T06:00:32.125Z,94607.81
2023-12-13T06:01:39.381Z,94607.98
2023-12-13T06:02:55.307Z,94605.66
2023-12-13T06:04:03.894Z,94607.23
2023-12-13T06:05:12.561Z,94606.15
2023-12-13T06:06:20.292Z,94600.08
2023-12-13T06:07:26.742Z,94598.46
2023-12-13T06:08:33.817Z,94597.38
2023-12-13T06:09:41.357Z,94597.38
2023-12-13T06:10:48.060Z,94585.58
2023-12-13T06:11:54.698Z,94585.13
2023-12-13T06:13:00.892Z,94583.35
2023-12-13T06:14:07.160Z,94581.57
2023-12-13T06:15:14.043Z,94583.86
2023-12-13T06:16:20.559Z,94578.42
2023-12-13T06:17:27.215Z,94581.52
2023-12-13T06:18:34.093Z,94582.19
2023-12-13T06:19:41.985Z,94582.80
2023-12-13T06:20:48.249Z,94577.65
2023-12-13T06:21:56.394Z,94570.77
2023-12-13T06:23:03.644Z,94569.12
2023-12-13T06:24:10.337Z,94570.79
2023-12-13T06:25:17.597Z,94570.98
2023-12-13T06:26:25.115Z,94568.36
2023-12-13T06:27:31.836Z,94565.55
2023-12-13T06:28:38.351Z,94564.06
2023-12-13T06:29:45.293Z,94565.86
2023-12-13T06:30:52.393Z,94563.29
2023-12-13T06:31:59.003Z,94559.98
2023-12-13T06:33:06.219Z,94553.65
2023-12-13T06:34:12.747Z,94541.30
2023-12-13T06:35:19.209Z,94539.00
2023-12-13T06:36:25.870Z,94535.95
2023-12-13T06:37:33.476Z,94532.43
2023-12-13T06:38:39.996Z,94533.80
2023-12-13T06:39:48.254Z,94526.65
2023-12-13T06:40:56.514Z,94524.52
2023-12-13T06:42:03.921Z,94522.73
2023-12-13T06:43:11.118Z,94524.23
2023-12-13T06:44:17.965Z,94523.44
2023-12-13T06:45:24.194Z,94529.09
2023-12-13T06:46:30.667Z,94529.38
2023-12-13T06:47:37.579Z,94531.79
2023-12-13T06:48:44.732Z,94530.08
2023-12-13T06:49:51.178Z,94526.02
2023-12-13T06:50:58.293Z,94525.17
2023-12-13T06:52:05.383Z,94523.92
2023-12-13T06:53:12.195Z,94521.11
2023-12-13T06:54:19.768Z,94521.40
2023-12-13T06:55:26.485Z,94520.85
2023-12-13T06:56:33.048Z,94519.41
2023-12-13T06:57:40.421Z,94519.86
2023-12-13T06:58:47.359Z,94521.77
2023-12-13T06:59:54.611Z,94520.94
2023-12-13T07:01:00.946Z,94522.94
2023-12-13T07:02:08.364Z,94524.63
2023-12-13T07:03:14.972Z,94523.80
2023-12-13T07:04:21.785Z,94527.55
2023-12-13T07:05:28.200Z,94532.15
2023-12-13T07:06:35.268Z,94533.41
2023-12-13T07:07:41.490Z,94527.14
2023-12-13T07:08:48.103Z,94523.02
2023-12-13T07:09:55.585Z,94515.77
2023-12-13T07:11:04.800Z,94510.30
2023-12-13T07:12:11.940Z,94501.10
2023-12-13T07:13:18.881Z,94498.87
2023-12-13T07:14:26.734Z,94491.91
2023-12-13T07:15:33.310Z,94487.24
2023-12-13T07:16:39.880Z,94483.50
2023-12-13T07:17:46.331Z,94484.59
2023-12-13T07:18:53.557Z,94486.48
2023-12-13T07:20:01.202Z,94490.83
2023-12-13T07:21:09.671Z,94490.11
2023-12-13T07:22:16.140Z,94490.17
2023-12-13T07:23:22.911Z,94495.91
2023-12-13T07:24:29.432Z,94497.16
2023-12-13T07:25:35.695Z,94503.89
2023-12-13T07:26:42.134Z,94511.05
2023-12-13T07:27:48.674Z,94513.64
2023-12-13T07:28:55.229Z,94517.34
2023-12-13T07:30:01.849Z,94511.87
2023-12-13T07:31:10.357Z,94509.57
2023-12-13T07:32:17.453Z,94508.66
2023-12-13T07:33:24.837Z,94500.77
2023-12-13T07:34:31.454Z,94489.66
2023-12-13T07:35:38.227Z,94482.30
2023-12-13T07:36:49.583Z,94475.02
2023-12-13T07:37:56.594Z,94480.46
2023-12-13T07:39:04.410Z,94478.25
2023-12-13T07:40:13.320Z,94478.67
2023-12-13T07:41:20.730Z,94481.55
2023-12-13T07:42:29.192Z,94480.95
2023-12-13T07:43:35.529Z,94476.48
2023-12-13T07:44:43.863Z,94473.08
2023-12-13T07:45:53.258Z,94465.64
2023-12-13T07:47:00.279Z,94462.47
2023-12-13T07:48:17.979Z,94463.39
2023-12-13T07:49:32.819Z,94466.00
2023-12-13T07:50:39.692Z,94462.64
2023-12-13T07:51:46.443Z,94466.93
2023-12-13T07:52:52.968Z,94470.17
2023-12-13T07:54:01.938Z,94468.70
2023-12-13T07:55:10.149Z,94461.64
2023-12-13T07:56:23.981Z,94456.04
2023-12-13T07:57:34.231Z,94449.62
2023-12-13T07:58:40.589Z,94457.49
2023-12-13T07:59:47.186Z,94468.58
2023-12-13T08:00:53.595Z,94467.04
2023-12-13T08:01:59.840Z,94468.80
2023-12-13T08:03:06.242Z,94472.42
2023-12-13T08:04:12.783Z,94471.84
2023-12-13T08:05:21.478Z,94474.17
2023-12-13T08:06:28.150Z,94475.16
2023-12-13T08:07:34.466Z,94475.21
2023-12-13T08:08:41.076Z,94471.46
2023-12-13T08:09:47.588Z,94469.20
2023-12-13T08:10:54.676Z,94464.75
2023-12-13T08:12:01.340Z,94464.52
2023-12-13T08:13:07.963Z,94461.88
2023-12-13T08:14:17.567Z,94459.41
2023-12-13T08:15:24.408Z,94456.79
2023-12-13T08:16:31.098Z,94449.23
2023-12-13T08:17:37.887Z,94446.81
2023-12-13T08:18:44.538Z,94448.91
2023-12-13T08:19:51.601Z,94449.55
2023-12-13T08:20:58.133Z,94452.27
2023-12-13T08:22:05.068Z,94453.50
2023-12-13T08:23:11.571Z,94453.16
2023-12-13T08:24:18.521Z,94460.23
2023-12-13T08:25:25.114Z,94460.90
2023-12-13T08:26:31.430Z,94456.94
2023-12-13T08:27:38.307Z,94450.82
2023-12-13T08:28:44.889Z,94452.30
2023-12-13T08:29:51.970Z,94458.21
2023-12-13T08:31:08.750Z,94464.84
2023-12-13T08:32:23.598Z,94462.52
2023-12-13T08:33:29.970Z,94462.40
2023-12-13T08:34:36.921Z,94457.58
2023-12-13T08:35:43.695Z,94451.57
2023-12-13T08:36:50.274Z,94451.00
2023-12-13T08:37:56.996Z,94448.76
2023-12-13T08:39:04.264Z,94447.95
2023-12-13T08:40:12.534Z,94454.29
2023-12-13T08:41:18.973Z,94454.02
2023-12-13T08:42:30.643Z,94453.13
2023-12-13T08:43:43.275Z,94450.93
2023-12-13T08:44:50.390Z,94449.85
2023-12-13T08:45:56.773Z,94446.90
2023-12-13T08:47:03.523Z,94451.61
2023-12-13T08:48:10.084Z,94449.35
2023-12-13T08:49:16.588Z,94453.35
2023-12-13T08:50:23.682Z,94455.98
2023-12-13T08:51:30.252Z,94446.09
2023-12-13T08:52:36.573Z,94443.39
2023-12-13T08:53:42.778Z,94434.63
2023-12-13T08:54:48.995Z,94432.20
2023-12-13T08:55:55.280Z,94427.26
2023-12-13T08:57:02.554Z,94425.23
2023-12-13T08:58:08.896Z,94424.85
2023-12-13T08:59:15.167Z,94415.80
2023-12-13T09:00:22.746Z,94409.33
2023-12-13T09:01:29.748Z,94404.38
2023-12-13T09:02:36.011Z,94398.19
2023-12-13T09:03:42.600Z,94388.91
2023-12-13T09:04:49.799Z,94385.73
2023-12-13T09:05:56.261Z,94378.27
2023-12-13T09:07:02.642Z,94371.29
2023-12-13T09:08:09.114Z,94369.45
2023-12-13T09:09:15.961Z,94365.44
2023-12-13T09:10:27.497Z,94372.08
2023-12-13T09:11:33.600Z,94380.59
2023-12-13T09:12:39.898Z,94376.13
2023-12-13T09:13:46.375Z,94370.23
2023-12-13T09:14:53.233Z,94371.71
2023-12-13T09:15:59.771Z,94373.61
2023-12-13T09:17:06.647Z,94385.41
2023-12-13T09:18:13.226Z,94391.17
2023-12-13T09:19:20.545Z,94379.37
2023-12-13T09:20:33.060Z,94362.73
2023-12-13T09:21:39.584Z,94351.64
2023-12-13T09:22:46.255Z,94351.89
2023-12-13T09:23:52.830Z,94360.46
2023-12-13T09:24:59.986Z,94364.58
2023-12-13T09:26:07.221Z,94364.05
2023-12-13T09:27:13.691Z,94364.57
2023-12-13T09:28:20.579Z,94359.31
2023-12-13T09:29:26.835Z,94342.50
2023-12-13T09:30:33.125Z,94332.06
2023-12-13T09:31:39.987Z,94328.40
2023-12-13T09:32:48.085Z,94323.50
2023-12-13T09:33:54.951Z,94315.85
2023-12-13T09:35:01.641Z,94310.27
2023-12-13T09:36:10.575Z,94305.46
2023-12-13T09:37:17.724Z,94300.39
2023-12-13T09:38:24.258Z,94307.17
2023-12-13T09:39:31.151Z,94315.48
2023-12-13T09:40:37.927Z,94307.05
2023-12-13T09:41:55.338Z,94300.81
2023-12-13T09:43:03.151Z,94291.57
2023-12-13T09:44:10.358Z,94290.52
2023-12-13T09:45:22.548Z,94289.27
2023-12-13T09:46:30.899Z,94283.59
2023-12-13T09:47:39.393Z,94280.48
2023-12-13T09:48:47.298Z,94277.95
2023-12-13T09:49:55.065Z,94279.83
2023-12-13T09:51:04.097Z,94280.50
2023-12-13T09:52:09.593Z,94279.45
2023-12-13T09:53:17.711Z,94282.84
2023-12-13T09:54:24.475Z,94289.19
2023-12-13T09:55:30.886Z,94285.80
2023-12-13T09:56:38.183Z,94286.55
2023-12-13T09:57:44.891Z,94281.05
2023-12-13T09:58:51.869Z,94279.55
2023-12-13T09:59:59.097Z,94278.57
2023-12-13T10:01:17.443Z,94279.72
2023-12-13T10:02:23.823Z,94277.19
2023-12-13T10:03:32.820Z,94279.23
2023-12-13T10:04:37.710Z,94283.52
2023-12-13T10:05:48.769Z,94285.34
2023-12-13T10:06:55.605Z,94288.95
2023-12-13T10:08:05.329Z,94282.94
2023-12-13T10:09:12.634Z,94276.05
2023-12-13T10:10:19.726Z,94285.05
2023-12-13T10:11:26.575Z,94284.71
2023-12-13T10:12:35.000Z,94288.60
2023-12-13T10:13:42.534Z,94284.13
2023-12-13T10:14:49.050Z,94285.39
2023-12-13T10:15:55.531Z,94292.10
2023-12-13T10:17:11.810Z,94284.41
2023-12-13T10:18:23.987Z,94263.59
2023-12-13T10:19:30.799Z,94275.61
2023-12-13T10:20:38.104Z,94281.51
2023-12-13T10:21:47.378Z,94276.85
2023-12-13T10:22:52.258Z,94266.41
2023-12-13T10:23:58.787Z,94252.39
2023-12-13T10:25:05.994Z,94245.52
2023-12-13T10:26:13.512Z,94244.66
2023-12-13T10:27:20.528Z,94242.11
2023-12-13T10:28:27.377Z,94235.40
2023-12-13T10:29:34.046Z,94227.59
2023-12-13T10:30:41.678Z,94219.88
2023-12-13T10:31:49.569Z,94219.08
2023-12-13T10:32:56.228Z,94218.77
2023-12-13T10:34:03.013Z,94216.95
2023-12-13T10:35:10.717Z,94206.20
2023-12-13T10:36:19.353Z,94200.88
2023-12-13T10:37:28.424Z,94198.69
2023-12-13T10:38:36.813Z,94207.95
2023-12-13T10:39:45.911Z,94210.09
2023-12-13T10:40:51.030Z,94210.40
2023-12-13T10:42:00.554Z,94202.08
2023-12-13T10:43:09.293Z,94209.25
2023-12-13T10:44:20.746Z,94207.54
2023-12-13T10:45:28.037Z,94205.67
2023-12-13T10:46:37.826Z,94203.88
2023-12-13T10:47:47.275Z,94199.09
2023-12-13T10:48:55.186Z,94194.80
2023-12-13T10:50:02.948Z,94185.66
2023-12-13T10:51:10.987Z,94186.80
2023-12-13T10:52:19.458Z,94192.95
2023-12-13T10:53:28.054Z,94195.38
2023-12-13T10:54:36.150Z,94194.90
2023-12-13T10:55:44.568Z,94187.34
2023-12-13T10:56:52.454Z,94186.14
2023-12-13T10:57:59.445Z,94182.54
2023-12-13T10:59:08.761Z,94175.59
2023-12-13T11:00:18.142Z,94172.00
2023-12-13T11:01:25.481Z,94171.20
2023-12-13T11:02:37.524Z,94164.62
2023-12-13T11:03:49.543Z,94173.71
2023-12-13T11:04:57.108Z,94178.73
2023-12-13T11:06:08.727Z,94182.10
2023-12-13T11:07:21.820Z,94180.52
2023-12-13T11:08:42.583Z,94168.23
2023-12-13T11:09:57.042Z,94160.20
2023-12-13T11:11:05.431Z,94167.58
2023-12-13T11:12:20.035Z,94173.48
2023-12-13T11:13:27.673Z,94175.63
2023-12-13T11:14:36.343Z,94172.95
2023-12-13T11:15:46.722Z,94169.84
2023-12-13T11:16:53.842Z,94176.14
2023-12-13T11:18:05.431Z,94180.02
2023-12-13T11:19:20.112Z,94184.69
2023-12-13T11:20:28.182Z,94179.45
2023-12-13T11:21:36.090Z,94176.59
2023-12-13T11:22:50.370Z,94170.00
2023-12-13T11:24:01.569Z,94158.99
2023-12-13T11:25:10.615Z,94158.91
2023-12-13T11:26:25.234Z,94166.36
2023-12-13T11:27:33.988Z,94159.58
2023-12-13T11:28:40.549Z,94152.28
2023-12-13T11:29:49.023Z,94149.43
2023-12-13T11:30:57.254Z,94141.73
2023-12-13T11:32:05.585Z,94128.20
2023-12-13T11:33:15.798Z,94120.48
2023-12-13T11:34:33.778Z,94121.13
2023-12-13T11:35:41.881Z,94119.31
2023-12-13T11:36:48.547Z,94116.59
2023-12-13T11:37:56.403Z,94129.38
2023-12-13T11:39:04.877Z,94129.60
2023-12-13T11:40:13.476Z,94131.01
2023-12-13T11:41:21.553Z,94128.16
2023-12-13T11:42:27.781Z,94122.77
2023-12-13T11:43:34.389Z,94114.27
2023-12-13T11:44:43.891Z,94117.55
2023-12-13T11:45:51.523Z,94115.36
2023-12-13T11:46:56.782Z,94121.03
2023-12-13T11:48:04.935Z,94121.69
2023-12-13T11:49:11.680Z,94120.80
2023-12-13T11:50:21.490Z,94121.83
2023-12-13T11:51:28.708Z,94120.81
2023-12-13T11:52:35.345Z,94113.02
2023-12-13T11:53:42.095Z,94111.95
2023-12-13T11:54:48.641Z,94105.63
2023-12-13T11:55:56.638Z,94108.43
2023-12-13T11:57:11.787Z,94112.60
2023-12-13T11:58:18.565Z,94114.98
2023-12-13T11:59:26.431Z,94110.86
2023-12-13T12:00:33.599Z,94115.15
2023-12-13T12:01:42.013Z,94129.36
2023-12-13T12:02:52.903Z,94125.67
2023-12-13T12:03:59.874Z,94120.48
2023-12-13T12:05:09.754Z,94112.14
2023-12-13T12:06:23.496Z,94104.70
2023-12-13T12:07:30.604Z,94107.80
2023-12-13T12:08:37.970Z,94108.27
2023-12-13T12:09:49.590Z,94108.32
2023-12-13T12:10:56.813Z,94110.48
2023-12-13T12:12:05.049Z,94101.96
2023-12-13T12:13:15.601Z,94098.82
2023-12-13T12:14:26.204Z,94102.64
2023-12-13T12:15:33.649Z,94105.20
2023-12-13T12:16:41.100Z,94110.50
2023-12-13T12:17:48.926Z,94109.13
2023-12-13T12:18:56.809Z,94108.65
2023-12-13T12:20:04.659Z,94105.50
2023-12-13T12:21:12.237Z,94104.91
2023-12-13T12:22:23.138Z,94113.63
2023-12-13T12:23:32.992Z,94112.60
2023-12-13T12:24:39.539Z,94109.91
2023-12-13T12:25:47.535Z,94112.02
2023-12-13T12:26:55.806Z,94115.53
2023-12-13T12:28:02.848Z,94113.94
2023-12-13T12:29:09.433Z,94115.73
2023-12-13T12:30:18.775Z,94113.00
2023-12-13T12:31:25.481Z,94116.38
2023-12-13T12:32:32.002Z,94111.44
2023-12-13T12:33:39.361Z,94109.66
2023-12-13T12:34:50.846Z,94098.13
2023-12-13T12:35:58.912Z,94098.67
2023-12-13T12:37:06.123Z,94116.27
2023-12-13T12:38:13.400Z,94120.42
2023-12-13T12:39:20.283Z,94127.02
2023-12-13T12:40:26.836Z,94125.45
2023-12-13T12:41:35.836Z,94118.20
2023-12-13T12:42:44.182Z,94112.38
2023-12-13T12:43:51.522Z,94105.75
2023-12-13T12:44:57.977Z,94101.24
2023-12-13T12:46:05.776Z,94104.96
2023-12-13T12:47:12.041Z,94101.77
2023-12-13T12:48:19.486Z,94103.04
2023-12-13T12:49:26.621Z,94101.18
2023-12-13T12:50:33.321Z,94097.18
2023-12-13T12:51:39.878Z,94094.92
2023-12-13T12:52:46.413Z,94091.68
2023-12-13T12:53:53.053Z,94085.71
2023-12-13T12:54:59.344Z,94085.52
2023-12-13T12:56:11.245Z,94085.83
2023-12-13T12:57:19.349Z,94082.34
2023-12-13T12:58:26.059Z,94078.68
2023-12-13T12:59:32.638Z,94090.43
2023-12-13T13:00:39.271Z,94094.11
2023-12-13T13:01:46.629Z,94094.19
2023-12-13T13:02:54.058Z,94085.91
2023-12-13T13:04:01.003Z,94082.23
2023-12-13T13:05:08.853Z,94071.96
2023-12-13T13:06:16.093Z,94070.89
2023-12-13T13:07:22.620Z,94072.69
2023-12-13T13:08:30.045Z,94073.80
2023-12-13T13:09:37.115Z,94075.48
2023-12-13T13:10:43.929Z,94068.44
2023-12-13T13:11:50.553Z,94066.55
2023-12-13T13:12:57.716Z,94063.92